Archival Weather

Chicago O'Hare International

Chicago, Illinois (KORD)

Report from: Friday, September 23, 2022 4:51 AM CDT
Current time: Wednesday, September 28, 2022 3:55 AM CDT

Current weather
Weather history
Weather forecast

Temperature10.6°C (51.1°F)
Dew point5.6°C (42.1°F)
Winds 3 kts (1.5 m/s, 3.5 mph) North-Northwest (330°)
Visibility10 mi. (16.1 km)
Clouds Few clouds 4,000 ft. (1,219 m)
Scattered clouds 25,000 ft. (7,620 m)
Altimeter30.24 in.Hg (1024 mB)
Relative humidity71 %
Density altitude-757 ft. (-231 m)
Sea-level pressure102.4 kPa (1024 mB, 30.24 in.Hg)
Remarks Automated weather observing station with precipitation discriminator
Flight conditions Visual Meteorological Conditions
Raw dataKORD 230951Z 33003KT 10SM FEW040 SCT250 11/06 A3024 RMK AO2 SLP240 T01060056
An error has occurred. This application may no longer respond until reloaded. Reload 🗙